createdAt,value
2022-11-18T00:02:42.778Z,2.2
2022-11-18T00:09:02.513Z,2.2
2022-11-18T00:15:30.485Z,1.3
2022-11-18T00:21:45.524Z,1.3
2022-11-18T00:28:08.641Z,1
2022-11-18T00:34:28.532Z,1
2022-11-18T00:40:51.750Z,0.6
2022-11-18T00:47:11.502Z,0.6
2022-11-18T00:53:34.592Z,1.5
2022-11-18T00:59:54.512Z,1.5
2022-11-18T01:06:17.572Z,2.2
2022-11-18T01:12:37.568Z,2.2
2022-11-18T01:19:00.608Z,1
2022-11-18T01:25:20.578Z,1
2022-11-18T01:32:01.777Z,1.8
2022-11-18T01:38:03.579Z,1.8
2022-11-18T01:44:26.542Z,1.3
2022-11-18T01:50:46.561Z,1.3
2022-11-18T01:57:09.506Z,3
2022-11-18T02:03:29.545Z,3
2022-11-18T02:09:52.476Z,2.3
2022-11-18T02:16:12.599Z,2.3
2022-11-18T02:22:35.482Z,1.1
2022-11-18T02:28:55.541Z,1.1
2022-11-18T02:35:18.506Z,1.6
2022-11-18T02:41:38.494Z,1.6
2022-11-18T02:48:01.598Z,1.5
2022-11-18T02:54:21.584Z,1.5
2022-11-18T03:00:44.600Z,1.3
2022-11-18T03:07:04.520Z,1.3
2022-11-18T03:13:27.552Z,1.3
2022-11-18T03:19:47.490Z,1.3
2022-11-18T03:26:10.567Z,2.9
2022-11-18T03:32:30.569Z,2.9
2022-11-18T03:38:53.548Z,2.3
2022-11-18T03:45:13.496Z,2.3
2022-11-18T03:51:36.601Z,1.9
2022-11-18T03:57:56.484Z,1.9
2022-11-18T04:04:19.529Z,0.3
2022-11-18T04:10:39.548Z,0.3
2022-11-18T04:17:02.476Z,1.3
2022-11-18T04:23:22.573Z,1.3
2022-11-18T04:39:50.583Z,5.1
2022-11-18T04:46:10.493Z,5.1
2022-11-18T04:52:33.451Z,5.1
2022-11-18T04:58:53.606Z,5.1
2022-11-18T05:05:16.484Z,2.5
2022-11-18T05:11:36.597Z,2.5
2022-11-18T05:17:59.608Z,0.8
2022-11-18T05:24:19.593Z,0.8
2022-11-18T05:30:42.567Z,1.4
2022-11-18T05:37:02.519Z,1.4
2022-11-18T05:43:25.594Z,1.8
2022-11-18T05:49:45.470Z,1.8
2022-11-18T05:56:08.545Z,1.8
2022-11-18T06:02:28.572Z,1.8
2022-11-18T06:08:51.567Z,1.6
2022-11-18T06:15:11.609Z,1.6
2022-11-18T06:21:34.594Z,1.9
2022-11-18T06:27:54.518Z,1.9
2022-11-18T06:34:17.571Z,1.9
2022-11-18T06:40:37.511Z,1.9
2022-11-18T06:47:00.547Z,2.2
2022-11-18T06:53:20.574Z,2.2
2022-11-18T06:59:43.549Z,2.2
2022-11-18T07:06:03.548Z,2.2
2022-11-18T07:12:26.513Z,1.8
2022-11-18T07:18:46.596Z,1.8
2022-11-18T07:25:09.643Z,3.2
2022-11-18T07:31:29.613Z,3.2
2022-11-18T07:37:52.645Z,1.9
2022-11-18T07:44:12.563Z,1.9
2022-11-18T07:50:35.654Z,2.8
2022-11-18T07:56:55.512Z,2.8
2022-11-18T08:03:18.569Z,2.1
2022-11-18T08:09:38.681Z,2.1
2022-11-18T08:16:01.532Z,3.2
2022-11-18T08:22:21.657Z,3.2
2022-11-18T08:28:44.784Z,3
2022-11-18T08:35:09.695Z,3
2022-11-18T08:41:27.598Z,2.4
2022-11-18T08:47:47.539Z,2.4
2022-11-18T08:54:10.615Z,4.1
2022-11-18T09:00:30.519Z,4.1
2022-11-18T09:06:53.576Z,2.4
2022-11-18T09:13:40.234Z,2.4
2022-11-18T09:19:52.060Z,2.6
2022-11-18T09:25:56.601Z,2.6
2022-11-18T09:32:19.521Z,2.7
2022-11-18T09:38:39.487Z,2.7
2022-11-18T09:55:24.642Z,5.9
2022-11-18T10:01:44.517Z,5.9
2022-11-18T10:08:07.480Z,5.9
2022-11-18T10:14:27.558Z,5.9
2022-11-18T10:20:50.517Z,3.3
2022-11-18T10:27:10.538Z,3.3
2022-11-18T10:33:33.544Z,1.3
2022-11-18T10:39:53.495Z,1.3
2022-11-18T10:46:16.566Z,3.3
2022-11-18T10:52:36.531Z,3.3
2022-11-18T10:58:59.503Z,1.2
2022-11-18T11:05:19.517Z,1.2
2022-11-18T11:11:42.549Z,1.2
2022-11-18T11:18:02.605Z,1.2
2022-11-18T11:24:25.498Z,1.7
2022-11-18T11:30:46.595Z,1.7
2022-11-18T11:37:08.569Z,1.5
2022-11-18T11:43:28.480Z,1.5
2022-11-18T11:49:51.614Z,0.8
2022-11-18T11:56:11.635Z,0.8
2022-11-18T12:02:34.603Z,1.4
2022-11-18T12:08:54.592Z,1.4
2022-11-18T12:15:17.525Z,0.7
2022-11-18T12:21:37.529Z,0.7
2022-11-18T12:28:00.503Z,1.5
2022-11-18T12:34:20.599Z,1.5
2022-11-18T12:40:47.354Z,0.7
2022-11-18T12:47:03.539Z,0.7
2022-11-18T12:53:26.550Z,1.4
2022-11-18T12:59:46.513Z,1.4
2022-11-18T13:06:09.627Z,0.6
2022-11-18T13:12:29.530Z,0.6
2022-11-18T13:18:52.516Z,0
2022-11-18T13:25:12.669Z,0
2022-11-18T13:31:35.484Z,1.6
2022-11-18T13:37:55.511Z,1.6
2022-11-18T13:44:18.553Z,0.9
2022-11-18T13:50:38.504Z,0.9
2022-11-18T13:57:01.559Z,2.8
2022-11-18T14:03:21.545Z,2.8
2022-11-18T14:09:44.536Z,0.7
2022-11-18T14:16:04.522Z,0.7
2022-11-18T14:22:27.537Z,1.4
2022-11-18T14:28:47.883Z,1.4
2022-11-18T14:35:10.874Z,1.2
2022-11-18T14:41:30.672Z,1.2
2022-11-18T14:47:53.613Z,1.7
2022-11-18T14:54:13.531Z,1.7
2022-11-18T15:00:36.643Z,1
2022-11-18T15:23:28.567Z,1.1
2022-11-18T15:29:44.541Z,1.1
2022-11-18T15:36:07.559Z,0.8
2022-11-18T15:42:27.603Z,0.8
2022-11-18T15:48:51.029Z,2.3
2022-11-18T15:55:10.752Z,2.3
2022-11-18T16:01:33.672Z,0.9
2022-11-18T16:07:55.065Z,0.9
2022-11-18T16:14:17.310Z,0.9
2022-11-18T16:20:36.533Z,0.9
2022-11-18T16:26:59.600Z,1.2
2022-11-18T16:33:19.594Z,1.2
2022-11-18T16:39:42.585Z,1.8
2022-11-18T16:46:04.585Z,1.8
2022-11-18T16:52:25.591Z,2.4
2022-11-18T16:58:45.655Z,2.4
2022-11-18T17:05:08.617Z,1.4
2022-11-18T17:11:28.581Z,1.4
2022-11-18T17:17:51.531Z,0.9
2022-11-18T17:24:11.629Z,0.9
2022-11-18T17:30:34.585Z,3.9
2022-11-18T17:36:54.708Z,3.9
2022-11-18T17:43:17.563Z,3.6
2022-11-18T17:49:37.535Z,3.6
2022-11-18T17:56:03.801Z,2.3
2022-11-18T18:02:20.479Z,2.3
2022-11-18T18:08:43.490Z,2.6
2022-11-18T18:15:03.587Z,2.6
2022-11-18T18:21:26.562Z,1
2022-11-18T18:27:46.772Z,1
2022-11-18T18:34:09.611Z,3.8
2022-11-18T18:40:29.583Z,3.8
2022-11-18T18:46:52.561Z,2.5
2022-11-18T18:53:12.554Z,2.5
2022-11-18T18:59:35.543Z,3.1
2022-11-18T19:06:22.124Z,3.1
2022-11-18T19:12:18.639Z,4.9
2022-11-18T19:18:38.549Z,4.9
2022-11-18T19:25:02.075Z,3.6
2022-11-18T19:31:21.921Z,3.6
2022-11-18T19:37:44.548Z,3
2022-11-18T19:44:04.886Z,3
2022-11-18T19:50:27.839Z,3.1
2022-11-18T19:56:47.523Z,3.1
2022-11-18T20:03:10.552Z,1.1
2022-11-18T20:25:23.430Z,1.6
2022-11-18T20:31:43.471Z,1.6
2022-11-18T20:38:06.580Z,2.3
2022-11-18T20:44:26.585Z,2.3
2022-11-18T20:50:49.494Z,2.2
2022-11-18T20:57:09.629Z,2.2
2022-11-18T21:03:32.583Z,2
2022-11-18T21:09:52.534Z,2
2022-11-18T21:16:15.567Z,1.8
2022-11-18T21:22:35.544Z,1.8
2022-11-18T21:28:58.597Z,2.7
2022-11-18T21:35:18.812Z,2.7
2022-11-18T21:41:41.617Z,4.1
2022-11-18T21:48:01.566Z,4.1
2022-11-18T21:54:24.523Z,4.1
2022-11-18T22:00:44.545Z,4.1
2022-11-18T22:07:07.553Z,4.4
2022-11-18T22:13:27.519Z,4.4
2022-11-18T22:19:50.531Z,4.1
2022-11-18T22:26:10.521Z,4.1
2022-11-18T22:32:33.549Z,3.8
2022-11-18T22:38:53.599Z,3.8
2022-11-18T22:45:16.536Z,4.6
2022-11-18T22:51:36.545Z,4.6
2022-11-18T22:57:59.501Z,4.6
2022-11-18T23:22:14.486Z,10.7
2022-11-18T23:28:34.527Z,10.7
2022-11-18T23:34:57.509Z,10.7
2022-11-18T23:41:17.591Z,10.7
2022-11-18T23:47:40.543Z,4
2022-11-18T23:54:00.500Z,4
